sensor_id;sensor_type;location;lat;lon;timestamp;P1;durP1;ratioP1;P2;durP2;ratioP2
3873;SDS011;1952;50.872;6.692;2022-12-18T00:30:07;18.67;;;11.37;;
3873;SDS011;1952;50.872;6.692;2022-12-18T00:32:36;13.47;;;10.23;;
3873;SDS011;1952;50.872;6.692;2022-12-18T00:35:05;19.13;;;12.80;;
3873;SDS011;1952;50.872;6.692;2022-12-18T00:37:38;17.00;;;10.20;;
3873;SDS011;1952;50.872;6.692;2022-12-18T00:40:11;14.00;;;9.50;;
3873;SDS011;1952;50.872;6.692;2022-12-18T00:42:39;18.87;;;10.47;;
3873;SDS011;1952;50.872;6.692;2022-12-18T00:45:28;21.17;;;12.87;;
3873;SDS011;1952;50.872;6.692;2022-12-18T00:47:56;19.33;;;11.80;;
3873;SDS011;1952;50.872;6.692;2022-12-18T00:50:29;16.93;;;11.40;;
3873;SDS011;1952;50.872;6.692;2022-12-18T00:52:58;20.33;;;12.43;;
3873;SDS011;1952;50.872;6.692;2022-12-18T00:55:30;15.63;;;10.07;;
3873;SDS011;1952;50.872;6.692;2022-12-18T00:57:59;15.93;;;10.57;;
3873;SDS011;1952;50.872;6.692;2022-12-18T01:00:33;23.30;;;11.87;;
3873;SDS011;1952;50.872;6.692;2022-12-18T01:03:02;13.83;;;10.20;;
3873;SDS011;1952;50.872;6.692;2022-12-18T01:05:31;17.80;;;10.70;;
3873;SDS011;1952;50.872;6.692;2022-12-18T01:07:59;14.97;;;9.30;;
3873;SDS011;1952;50.872;6.692;2022-12-18T01:10:32;12.50;;;9.60;;
3873;SDS011;1952;50.872;6.692;2022-12-18T01:13:00;15.33;;;9.70;;
3873;SDS011;1952;50.872;6.692;2022-12-18T01:15:28;16.60;;;9.43;;
3873;SDS011;1952;50.872;6.692;2022-12-18T01:17:58;15.60;;;9.87;;
3873;SDS011;1952;50.872;6.692;2022-12-18T01:20:31;16.77;;;11.23;;
3873;SDS011;1952;50.872;6.692;2022-12-18T01:23:00;12.60;;;10.20;;
3873;SDS011;1952;50.872;6.692;2022-12-18T01:25:33;15.50;;;11.17;;
3873;SDS011;1952;50.872;6.692;2022-12-18T01:28:03;16.90;;;11.10;;
3873;SDS011;1952;50.872;6.692;2022-12-18T01:30:31;14.13;;;9.20;;
3873;SDS011;1952;50.872;6.692;2022-12-18T01:33:06;18.90;;;12.33;;
3873;SDS011;1952;50.872;6.692;2022-12-18T01:35:40;13.90;;;9.70;;
3873;SDS011;1952;50.872;6.692;2022-12-18T01:38:08;19.37;;;12.10;;
3873;SDS011;1952;50.872;6.692;2022-12-18T01:40:37;21.13;;;11.37;;
3873;SDS011;1952;50.872;6.692;2022-12-18T01:43:10;15.83;;;10.70;;
3873;SDS011;1952;50.872;6.692;2022-12-18T01:45:38;15.43;;;10.70;;
3873;SDS011;1952;50.872;6.692;2022-12-18T01:48:12;14.53;;;11.03;;
3873;SDS011;1952;50.872;6.692;2022-12-18T01:50:41;21.23;;;12.80;;
3873;SDS011;1952;50.872;6.692;2022-12-18T01:53:15;18.20;;;11.53;;
3873;SDS011;1952;50.872;6.692;2022-12-18T01:55:48;16.27;;;8.83;;
3873;SDS011;1952;50.872;6.692;2022-12-18T01:58:17;18.60;;;10.00;;
3873;SDS011;1952;50.872;6.692;2022-12-18T02:00:50;14.10;;;10.10;;
3873;SDS011;1952;50.872;6.692;2022-12-18T02:03:20;12.80;;;10.07;;
3873;SDS011;1952;50.872;6.692;2022-12-18T02:05:49;15.23;;;10.40;;
3873;SDS011;1952;50.872;6.692;2022-12-18T02:08:22;16.83;;;10.00;;
3873;SDS011;1952;50.872;6.692;2022-12-18T02:10:56;16.07;;;9.70;;
3873;SDS011;1952;50.872;6.692;2022-12-18T02:13:32;20.30;;;12.60;;
3873;SDS011;1952;50.872;6.692;2022-12-18T02:16:09;17.00;;;11.13;;
3873;SDS011;1952;50.872;6.692;2022-12-18T02:18:43;20.77;;;11.03;;
3873;SDS011;1952;50.872;6.692;2022-12-18T02:21:12;15.10;;;10.23;;
3873;SDS011;1952;50.872;6.692;2022-12-18T02:23:47;18.80;;;9.63;;
3873;SDS011;1952;50.872;6.692;2022-12-18T02:26:21;18.30;;;10.83;;
3873;SDS011;1952;50.872;6.692;2022-12-18T02:28:59;16.73;;;12.03;;
3873;SDS011;1952;50.872;6.692;2022-12-18T02:31:29;18.90;;;12.83;;
3873;SDS011;1952;50.872;6.692;2022-12-18T02:34:03;16.20;;;10.53;;
3873;SDS011;1952;50.872;6.692;2022-12-18T02:36:33;16.17;;;10.77;;
3873;SDS011;1952;50.872;6.692;2022-12-18T02:39:09;20.00;;;10.50;;
3873;SDS011;1952;50.872;6.692;2022-12-18T02:41:39;16.33;;;10.07;;
3873;SDS011;1952;50.872;6.692;2022-12-18T02:44:09;17.13;;;10.40;;
3873;SDS011;1952;50.872;6.692;2022-12-18T02:46:38;20.17;;;10.77;;
3873;SDS011;1952;50.872;6.692;2022-12-18T02:49:11;13.80;;;10.03;;
3873;SDS011;1952;50.872;6.692;2022-12-18T02:51:44;14.60;;;9.37;;
3873;SDS011;1952;50.872;6.692;2022-12-18T02:54:18;14.07;;;10.63;;
3873;SDS011;1952;50.872;6.692;2022-12-18T02:56:51;15.10;;;10.47;;
3873;SDS011;1952;50.872;6.692;2022-12-18T02:59:21;14.00;;;10.60;;
3873;SDS011;1952;50.872;6.692;2022-12-18T03:01:52;17.07;;;10.03;;
3873;SDS011;1952;50.872;6.692;2022-12-18T03:04:25;18.40;;;11.63;;
3873;SDS011;1952;50.872;6.692;2022-12-18T03:06:55;16.40;;;11.10;;
3873;SDS011;1952;50.872;6.692;2022-12-18T03:09:26;16.90;;;11.17;;
3873;SDS011;1952;50.872;6.692;2022-12-18T03:11:58;15.93;;;10.30;;
3873;SDS011;1952;50.872;6.692;2022-12-18T03:14:47;15.67;;;10.20;;
3873;SDS011;1952;50.872;6.692;2022-12-18T03:17:17;17.27;;;11.37;;
3873;SDS011;1952;50.872;6.692;2022-12-18T03:19:48;18.03;;;10.63;;
3873;SDS011;1952;50.872;6.692;2022-12-18T03:22:22;14.10;;;10.40;;
3873;SDS011;1952;50.872;6.692;2022-12-18T03:24:56;17.00;;;9.67;;
3873;SDS011;1952;50.872;6.692;2022-12-18T03:27:26;21.23;;;10.97;;
3873;SDS011;1952;50.872;6.692;2022-12-18T03:29:56;16.50;;;10.93;;
3873;SDS011;1952;50.872;6.692;2022-12-18T03:32:33;16.13;;;9.50;;
3873;SDS011;1952;50.872;6.692;2022-12-18T03:35:11;15.37;;;12.50;;
3873;SDS011;1952;50.872;6.692;2022-12-18T03:37:46;16.53;;;10.10;;
3873;SDS011;1952;50.872;6.692;2022-12-18T03:40:19;14.80;;;10.60;;
3873;SDS011;1952;50.872;6.692;2022-12-18T03:42:51;18.30;;;10.80;;
3873;SDS011;1952;50.872;6.692;2022-12-18T03:45:21;17.53;;;10.93;;
3873;SDS011;1952;50.872;6.692;2022-12-18T03:47:57;13.10;;;9.30;;
3873;SDS011;1952;50.872;6.692;2022-12-18T03:50:31;14.87;;;9.70;;
3873;SDS011;1952;50.872;6.692;2022-12-18T03:53:03;14.77;;;10.17;;
3873;SDS011;1952;50.872;6.692;2022-12-18T03:55:34;14.70;;;11.07;;
3873;SDS011;1952;50.872;6.692;2022-12-18T03:58:04;14.00;;;9.80;;
3873;SDS011;1952;50.872;6.692;2022-12-18T04:00:34;13.00;;;9.97;;
3873;SDS011;1952;50.872;6.692;2022-12-18T04:03:07;13.40;;;9.80;;
3873;SDS011;1952;50.872;6.692;2022-12-18T04:05:41;17.07;;;10.80;;
3873;SDS011;1952;50.872;6.692;2022-12-18T04:08:10;15.43;;;10.57;;
3873;SDS011;1952;50.872;6.692;2022-12-18T04:10:39;14.07;;;11.27;;
3873;SDS011;1952;50.872;6.692;2022-12-18T04:13:14;15.00;;;9.53;;
3873;SDS011;1952;50.872;6.692;2022-12-18T04:15:49;17.30;;;11.40;;
3873;SDS011;1952;50.872;6.692;2022-12-18T04:18:18;16.00;;;8.97;;
3873;SDS011;1952;50.872;6.692;2022-12-18T04:20:46;14.50;;;10.97;;
3873;SDS011;1952;50.872;6.692;2022-12-18T04:23:14;18.57;;;11.27;;
3873;SDS011;1952;50.872;6.692;2022-12-18T04:25:47;18.23;;;11.97;;
3873;SDS011;1952;50.872;6.692;2022-12-18T04:28:17;15.87;;;10.70;;
3873;SDS011;1952;50.872;6.692;2022-12-18T04:30:48;21.43;;;12.43;;
3873;SDS011;1952;50.872;6.692;2022-12-18T04:33:21;12.30;;;8.93;;
3873;SDS011;1952;50.872;6.692;2022-12-18T04:35:49;17.93;;;11.57;;
3873;SDS011;1952;50.872;6.692;2022-12-18T04:38:18;17.90;;;10.90;;
3873;SDS011;1952;50.872;6.692;2022-12-18T04:40:46;14.87;;;9.73;;
3873;SDS011;1952;50.872;6.692;2022-12-18T04:43:14;13.73;;;9.90;;
3873;SDS011;1952;50.872;6.692;2022-12-18T04:45:44;17.20;;;12.40;;
3873;SDS011;1952;50.872;6.692;2022-12-18T04:48:12;17.70;;;11.63;;
3873;SDS011;1952;50.872;6.692;2022-12-18T04:50:40;16.63;;;11.07;;
3873;SDS011;1952;50.872;6.692;2022-12-18T04:53:08;15.93;;;11.17;;
3873;SDS011;1952;50.872;6.692;2022-12-18T04:55:37;17.27;;;11.43;;
3873;SDS011;1952;50.872;6.692;2022-12-18T04:58:05;17.30;;;12.63;;
3873;SDS011;1952;50.872;6.692;2022-12-18T05:00:34;20.70;;;12.00;;
3873;SDS011;1952;50.872;6.692;2022-12-18T05:03:06;16.23;;;8.20;;
3873;SDS011;1952;50.872;6.692;2022-12-18T05:05:35;12.97;;;9.40;;
3873;SDS011;1952;50.872;6.692;2022-12-18T05:08:05;15.47;;;10.83;;
3873;SDS011;1952;50.872;6.692;2022-12-18T05:10:33;16.03;;;11.57;;
3873;SDS011;1952;50.872;6.692;2022-12-18T05:13:03;19.13;;;11.90;;
3873;SDS011;1952;50.872;6.692;2022-12-18T05:15:37;13.67;;;9.63;;
3873;SDS011;1952;50.872;6.692;2022-12-18T05:18:08;16.53;;;10.93;;
3873;SDS011;1952;50.872;6.692;2022-12-18T05:20:40;17.37;;;9.40;;
3873;SDS011;1952;50.872;6.692;2022-12-18T05:23:08;20.40;;;11.83;;
3873;SDS011;1952;50.872;6.692;2022-12-18T05:25:37;18.63;;;14.30;;
3873;SDS011;1952;50.872;6.692;2022-12-18T05:28:08;19.60;;;12.00;;
3873;SDS011;1952;50.872;6.692;2022-12-18T05:30:38;13.95;;;9.95;;
3873;SDS011;1952;50.872;6.692;2022-12-18T05:33:16;15.05;;;10.15;;
3873;SDS011;1952;50.872;6.692;2022-12-18T05:35:49;17.23;;;11.33;;
3873;SDS011;1952;50.872;6.692;2022-12-18T05:38:18;16.63;;;12.13;;
3873;SDS011;1952;50.872;6.692;2022-12-18T05:40:51;22.25;;;10.50;;
3873;SDS011;1952;50.872;6.692;2022-12-18T05:43:20;20.43;;;13.37;;
3873;SDS011;1952;50.872;6.692;2022-12-18T05:45:52;17.37;;;12.17;;
3873;SDS011;1952;50.872;6.692;2022-12-18T05:48:24;20.70;;;12.10;;
3873;SDS011;1952;50.872;6.692;2022-12-18T05:50:53;18.13;;;11.68;;
3873;SDS011;1952;50.872;6.692;2022-12-18T05:53:25;17.00;;;11.80;;
3873;SDS011;1952;50.872;6.692;2022-12-18T06:33:06;21.50;;;12.83;;
3873;SDS011;1952;50.872;6.692;2022-12-18T06:35:34;18.48;;;12.13;;
3873;SDS011;1952;50.872;6.692;2022-12-18T06:38:03;19.37;;;11.27;;
3873;SDS011;1952;50.872;6.692;2022-12-18T06:40:31;16.47;;;11.10;;
3873;SDS011;1952;50.872;6.692;2022-12-18T06:43:04;21.53;;;11.17;;
3873;SDS011;1952;50.872;6.692;2022-12-18T06:45:32;19.60;;;12.13;;
3873;SDS011;1952;50.872;6.692;2022-12-18T06:48:07;16.27;;;11.10;;
3873;SDS011;1952;50.872;6.692;2022-12-18T06:50:41;17.93;;;12.10;;
3873;SDS011;1952;50.872;6.692;2022-12-18T06:53:10;15.10;;;10.13;;
3873;SDS011;1952;50.872;6.692;2022-12-18T06:55:38;21.67;;;14.10;;
3873;SDS011;1952;50.872;6.692;2022-12-18T06:58:11;17.83;;;11.07;;
3873;SDS011;1952;50.872;6.692;2022-12-18T07:00:40;18.20;;;12.67;;
3873;SDS011;1952;50.872;6.692;2022-12-18T07:03:10;20.17;;;12.67;;
3873;SDS011;1952;50.872;6.692;2022-12-18T07:05:39;22.33;;;13.07;;
3873;SDS011;1952;50.872;6.692;2022-12-18T07:08:08;21.57;;;13.37;;
3873;SDS011;1952;50.872;6.692;2022-12-18T07:10:41;22.90;;;14.00;;
3873;SDS011;1952;50.872;6.692;2022-12-18T07:13:14;21.00;;;11.57;;
3873;SDS011;1952;50.872;6.692;2022-12-18T07:15:47;19.90;;;13.20;;
3873;SDS011;1952;50.872;6.692;2022-12-18T07:18:16;18.83;;;11.60;;
3873;SDS011;1952;50.872;6.692;2022-12-18T07:20:45;15.70;;;11.50;;
3873;SDS011;1952;50.872;6.692;2022-12-18T07:23:18;19.10;;;11.50;;
3873;SDS011;1952;50.872;6.692;2022-12-18T07:25:51;25.33;;;14.83;;
3873;SDS011;1952;50.872;6.692;2022-12-18T07:28:19;18.63;;;11.47;;
3873;SDS011;1952;50.872;6.692;2022-12-18T07:30:49;21.20;;;12.90;;
3873;SDS011;1952;50.872;6.692;2022-12-18T07:33:23;19.13;;;11.77;;
3873;SDS011;1952;50.872;6.692;2022-12-18T07:35:58;23.70;;;13.57;;
3873;SDS011;1952;50.872;6.692;2022-12-18T07:38:32;16.60;;;12.17;;
3873;SDS011;1952;50.872;6.692;2022-12-18T07:41:01;20.17;;;12.40;;
3873;SDS011;1952;50.872;6.692;2022-12-18T07:43:32;17.93;;;12.87;;
3873;SDS011;1952;50.872;6.692;2022-12-18T07:46:00;18.53;;;12.13;;
3873;SDS011;1952;50.872;6.692;2022-12-18T07:48:30;19.07;;;13.63;;
3873;SDS011;1952;50.872;6.692;2022-12-18T07:50:59;19.30;;;13.90;;
3873;SDS011;1952;50.872;6.692;2022-12-18T07:53:31;15.33;;;11.60;;
3873;SDS011;1952;50.872;6.692;2022-12-18T07:56:01;21.80;;;13.83;;
3873;SDS011;1952;50.872;6.692;2022-12-18T07:58:49;16.97;;;12.23;;
3873;SDS011;1952;50.872;6.692;2022-12-18T08:01:18;20.50;;;12.40;;
3873;SDS011;1952;50.872;6.692;2022-12-18T08:03:52;15.43;;;10.97;;
3873;SDS011;1952;50.872;6.692;2022-12-18T08:06:21;19.17;;;12.90;;
3873;SDS011;1952;50.872;6.692;2022-12-18T08:08:50;18.40;;;12.70;;
3873;SDS011;1952;50.872;6.692;2022-12-18T08:11:18;20.27;;;12.87;;
3873;SDS011;1952;50.872;6.692;2022-12-18T08:13:47;15.03;;;13.07;;
3873;SDS011;1952;50.872;6.692;2022-12-18T08:16:15;19.10;;;13.70;;
3873;SDS011;1952;50.872;6.692;2022-12-18T08:18:49;14.43;;;11.03;;
3873;SDS011;1952;50.872;6.692;2022-12-18T08:21:19;18.20;;;12.60;;
3873;SDS011;1952;50.872;6.692;2022-12-18T08:23:54;17.40;;;11.23;;
3873;SDS011;1952;50.872;6.692;2022-12-18T08:26:23;19.77;;;11.93;;
3873;SDS011;1952;50.872;6.692;2022-12-18T08:28:52;17.20;;;12.47;;
3873;SDS011;1952;50.872;6.692;2022-12-18T08:31:35;19.03;;;12.23;;
3873;SDS011;1952;50.872;6.692;2022-12-18T08:34:16;14.37;;;12.47;;
3873;SDS011;1952;50.872;6.692;2022-12-18T08:36:48;17.53;;;11.70;;
3873;SDS011;1952;50.872;6.692;2022-12-18T08:39:16;19.07;;;13.20;;
3873;SDS011;1952;50.872;6.692;2022-12-18T08:41:49;20.17;;;13.13;;
3873;SDS011;1952;50.872;6.692;2022-12-18T08:44:36;15.17;;;11.50;;
3873;SDS011;1952;50.872;6.692;2022-12-18T08:47:06;21.17;;;12.70;;
3873;SDS011;1952;50.872;6.692;2022-12-18T08:49:35;19.10;;;12.50;;
3873;SDS011;1952;50.872;6.692;2022-12-18T08:52:07;15.80;;;11.40;;
3873;SDS011;1952;50.872;6.692;2022-12-18T08:54:35;19.80;;;13.90;;
3873;SDS011;1952;50.872;6.692;2022-12-18T08:57:05;12.67;;;11.03;;
3873;SDS011;1952;50.872;6.692;2022-12-18T08:59:47;21.33;;;13.97;;
3873;SDS011;1952;50.872;6.692;2022-12-18T09:02:18;20.10;;;15.23;;
3873;SDS011;1952;50.872;6.692;2022-12-18T09:04:47;18.50;;;14.83;;
3873;SDS011;1952;50.872;6.692;2022-12-18T09:07:24;18.93;;;13.73;;
3873;SDS011;1952;50.872;6.692;2022-12-18T09:09:52;20.33;;;15.17;;
3873;SDS011;1952;50.872;6.692;2022-12-18T09:12:26;17.57;;;13.67;;
3873;SDS011;1952;50.872;6.692;2022-12-18T09:15:04;15.60;;;12.70;;
3873;SDS011;1952;50.872;6.692;2022-12-18T09:17:32;19.53;;;14.13;;
3873;SDS011;1952;50.872;6.692;2022-12-18T09:20:02;22.00;;;13.37;;
3873;SDS011;1952;50.872;6.692;2022-12-18T09:22:32;15.63;;;13.40;;
3873;SDS011;1952;50.872;6.692;2022-12-18T09:25:01;19.83;;;12.17;;
3873;SDS011;1952;50.872;6.692;2022-12-18T09:27:39;20.03;;;12.53;;
3873;SDS011;1952;50.872;6.692;2022-12-18T09:30:13;17.50;;;12.23;;
3873;SDS011;1952;50.872;6.692;2022-12-18T09:32:41;18.30;;;13.77;;
3873;SDS011;1952;50.872;6.692;2022-12-18T09:35:10;24.07;;;15.47;;
3873;SDS011;1952;50.872;6.692;2022-12-18T09:37:48;18.63;;;11.70;;
3873;SDS011;1952;50.872;6.692;2022-12-18T09:40:18;14.73;;;11.43;;
3873;SDS011;1952;50.872;6.692;2022-12-18T09:42:53;24.50;;;16.00;;
3873;SDS011;1952;50.872;6.692;2022-12-18T09:45:23;20.23;;;14.50;;
3873;SDS011;1952;50.872;6.692;2022-12-18T09:47:52;26.00;;;15.67;;
3873;SDS011;1952;50.872;6.692;2022-12-18T09:50:33;18.73;;;12.70;;
3873;SDS011;1952;50.872;6.692;2022-12-18T09:53:19;16.97;;;12.80;;
3873;SDS011;1952;50.872;6.692;2022-12-18T09:55:53;20.70;;;13.00;;
3873;SDS011;1952;50.872;6.692;2022-12-18T09:58:29;20.33;;;13.50;;
3873;SDS011;1952;50.872;6.692;2022-12-18T10:01:09;21.50;;;14.80;;
3873;SDS011;1952;50.872;6.692;2022-12-18T10:04:04;19.67;;;15.10;;
3873;SDS011;1952;50.872;6.692;2022-12-18T10:06:43;19.13;;;12.77;;
3873;SDS011;1952;50.872;6.692;2022-12-18T10:09:15;18.40;;;12.07;;
3873;SDS011;1952;50.872;6.692;2022-12-18T10:11:49;21.53;;;14.20;;
3873;SDS011;1952;50.872;6.692;2022-12-18T10:14:23;16.73;;;14.33;;
3873;SDS011;1952;50.872;6.692;2022-12-18T10:16:56;22.63;;;15.07;;
3873;SDS011;1952;50.872;6.692;2022-12-18T10:19:46;17.33;;;12.50;;
3873;SDS011;1952;50.872;6.692;2022-12-18T10:22:38;16.73;;;11.33;;
3873;SDS011;1952;50.872;6.692;2022-12-18T10:25:31;18.60;;;13.87;;
3873;SDS011;1952;50.872;6.692;2022-12-18T10:28:13;20.60;;;14.23;;
3873;SDS011;1952;50.872;6.692;2022-12-18T10:30:43;19.00;;;14.17;;
3873;SDS011;1952;50.872;6.692;2022-12-18T10:33:16;18.73;;;13.60;;
3873;SDS011;1952;50.872;6.692;2022-12-18T10:35:45;14.50;;;11.10;;
3873;SDS011;1952;50.872;6.692;2022-12-18T10:38:30;21.63;;;13.63;;
3873;SDS011;1952;50.872;6.692;2022-12-18T10:41:05;17.87;;;13.00;;
3873;SDS011;1952;50.872;6.692;2022-12-18T10:43:42;20.63;;;14.60;;
3873;SDS011;1952;50.872;6.692;2022-12-18T10:46:16;18.40;;;12.40;;
3873;SDS011;1952;50.872;6.692;2022-12-18T10:48:52;19.43;;;15.53;;
3873;SDS011;1952;50.872;6.692;2022-12-18T10:51:22;22.80;;;16.17;;
3873;SDS011;1952;50.872;6.692;2022-12-18T10:53:52;19.40;;;12.50;;
3873;SDS011;1952;50.872;6.692;2022-12-18T10:56:22;16.70;;;11.10;;
3873;SDS011;1952;50.872;6.692;2022-12-18T10:58:55;13.67;;;11.30;;
3873;SDS011;1952;50.872;6.692;2022-12-18T11:01:28;17.17;;;12.90;;
3873;SDS011;1952;50.872;6.692;2022-12-18T11:04:22;21.07;;;13.90;;
3873;SDS011;1952;50.872;6.692;2022-12-18T11:07:06;18.67;;;13.83;;
3873;SDS011;1952;50.872;6.692;2022-12-18T11:09:37;17.13;;;10.80;;
3873;SDS011;1952;50.872;6.692;2022-12-18T11:12:18;21.63;;;15.40;;
3873;SDS011;1952;50.872;6.692;2022-12-18T11:15:01;21.43;;;14.73;;
3873;SDS011;1952;50.872;6.692;2022-12-18T11:17:35;19.30;;;12.97;;
3873;SDS011;1952;50.872;6.692;2022-12-18T11:20:33;21.47;;;15.23;;
3873;SDS011;1952;50.872;6.692;2022-12-18T11:23:05;33.00;;;20.87;;
3873;SDS011;1952;50.872;6.692;2022-12-18T11:26:11;23.23;;;13.07;;
3873;SDS011;1952;50.872;6.692;2022-12-18T11:29:07;22.43;;;16.00;;
3873;SDS011;1952;50.872;6.692;2022-12-18T11:31:52;20.27;;;12.50;;
3873;SDS011;1952;50.872;6.692;2022-12-18T11:34:46;18.60;;;10.90;;
3873;SDS011;1952;50.872;6.692;2022-12-18T11:37:31;18.23;;;12.33;;
3873;SDS011;1952;50.872;6.692;2022-12-18T11:40:03;19.43;;;11.60;;
3873;SDS011;1952;50.872;6.692;2022-12-18T11:42:45;24.83;;;16.97;;
3873;SDS011;1952;50.872;6.692;2022-12-18T11:45:31;19.17;;;14.03;;
3873;SDS011;1952;50.872;6.692;2022-12-18T11:48:10;20.70;;;13.53;;
3873;SDS011;1952;50.872;6.692;2022-12-18T11:51:09;24.43;;;15.37;;
3873;SDS011;1952;50.872;6.692;2022-12-18T11:54:00;18.47;;;13.50;;
3873;SDS011;1952;50.872;6.692;2022-12-18T12:33:37;20.87;;;13.70;;
3873;SDS011;1952;50.872;6.692;2022-12-18T12:36:13;18.63;;;13.57;;
3873;SDS011;1952;50.872;6.692;2022-12-18T12:38:46;22.77;;;16.37;;
3873;SDS011;1952;50.872;6.692;2022-12-18T12:41:18;22.03;;;14.70;;
3873;SDS011;1952;50.872;6.692;2022-12-18T12:44:07;19.20;;;12.97;;
3873;SDS011;1952;50.872;6.692;2022-12-18T12:46:37;19.80;;;15.17;;
3873;SDS011;1952;50.872;6.692;2022-12-18T12:49:09;19.97;;;13.47;;
3873;SDS011;1952;50.872;6.692;2022-12-18T12:51:43;20.57;;;12.77;;
3873;SDS011;1952;50.872;6.692;2022-12-18T12:54:14;21.27;;;13.90;;
3873;SDS011;1952;50.872;6.692;2022-12-18T12:56:48;19.47;;;14.40;;
3873;SDS011;1952;50.872;6.692;2022-12-18T12:59:19;27.77;;;16.70;;
3873;SDS011;1952;50.872;6.692;2022-12-18T13:01:58;22.83;;;14.87;;
3873;SDS011;1952;50.872;6.692;2022-12-18T13:04:30;16.37;;;12.80;;
3873;SDS011;1952;50.872;6.692;2022-12-18T13:07:03;25.10;;;16.83;;
3873;SDS011;1952;50.872;6.692;2022-12-18T13:09:33;22.83;;;16.17;;
3873;SDS011;1952;50.872;6.692;2022-12-18T13:12:02;23.67;;;14.70;;
3873;SDS011;1952;50.872;6.692;2022-12-18T13:14:53;29.47;;;17.37;;
3873;SDS011;1952;50.872;6.692;2022-12-18T13:17:28;26.40;;;17.37;;
3873;SDS011;1952;50.872;6.692;2022-12-18T13:20:07;19.03;;;13.73;;
3873;SDS011;1952;50.872;6.692;2022-12-18T13:22:37;25.63;;;17.93;;
3873;SDS011;1952;50.872;6.692;2022-12-18T13:25:33;21.70;;;16.57;;
3873;SDS011;1952;50.872;6.692;2022-12-18T13:28:07;18.97;;;15.03;;
3873;SDS011;1952;50.872;6.692;2022-12-18T13:30:43;22.60;;;15.50;;
3873;SDS011;1952;50.872;6.692;2022-12-18T13:33:36;24.80;;;16.10;;
3873;SDS011;1952;50.872;6.692;2022-12-18T13:36:28;27.47;;;18.90;;
3873;SDS011;1952;50.872;6.692;2022-12-18T13:41:50;28.63;;;17.50;;
3873;SDS011;1952;50.872;6.692;2022-12-18T13:44:31;22.33;;;15.73;;
3873;SDS011;1952;50.872;6.692;2022-12-18T13:47:24;25.30;;;15.90;;
3873;SDS011;1952;50.872;6.692;2022-12-18T13:49:58;24.73;;;16.30;;
3873;SDS011;1952;50.872;6.692;2022-12-18T13:52:28;28.03;;;17.10;;
3873;SDS011;1952;50.872;6.692;2022-12-18T13:55:14;28.90;;;18.57;;
3873;SDS011;1952;50.872;6.692;2022-12-18T13:57:48;23.33;;;16.10;;
3873;SDS011;1952;50.872;6.692;2022-12-18T14:00:23;28.87;;;18.20;;
3873;SDS011;1952;50.872;6.692;2022-12-18T14:02:57;27.80;;;14.80;;
3873;SDS011;1952;50.872;6.692;2022-12-18T14:05:26;25.43;;;19.30;;
3873;SDS011;1952;50.872;6.692;2022-12-18T14:07:58;23.40;;;16.37;;
3873;SDS011;1952;50.872;6.692;2022-12-18T14:10:28;24.73;;;16.40;;
3873;SDS011;1952;50.872;6.692;2022-12-18T14:13:15;25.10;;;16.07;;
3873;SDS011;1952;50.872;6.692;2022-12-18T14:15:46;24.50;;;15.53;;
3873;SDS011;1952;50.872;6.692;2022-12-18T14:18:19;25.73;;;16.60;;
3873;SDS011;1952;50.872;6.692;2022-12-18T14:20:49;27.33;;;19.03;;
3873;SDS011;1952;50.872;6.692;2022-12-18T14:23:27;26.07;;;17.93;;
3873;SDS011;1952;50.872;6.692;2022-12-18T14:25:55;26.90;;;19.00;;
3873;SDS011;1952;50.872;6.692;2022-12-18T14:28:28;25.90;;;16.63;;
3873;SDS011;1952;50.872;6.692;2022-12-18T14:31:01;24.47;;;16.20;;
3873;SDS011;1952;50.872;6.692;2022-12-18T14:33:35;31.67;;;18.83;;
3873;SDS011;1952;50.872;6.692;2022-12-18T14:36:13;28.40;;;17.93;;
3873;SDS011;1952;50.872;6.692;2022-12-18T14:38:47;25.47;;;18.27;;
3873;SDS011;1952;50.872;6.692;2022-12-18T14:41:16;26.83;;;18.70;;
3873;SDS011;1952;50.872;6.692;2022-12-18T14:43:50;29.97;;;17.97;;
3873;SDS011;1952;50.872;6.692;2022-12-18T14:46:25;33.30;;;19.30;;
3873;SDS011;1952;50.872;6.692;2022-12-18T14:49:00;32.67;;;16.53;;
3873;SDS011;1952;50.872;6.692;2022-12-18T14:51:30;23.30;;;16.20;;
3873;SDS011;1952;50.872;6.692;2022-12-18T14:54:02;26.70;;;17.03;;
3873;SDS011;1952;50.872;6.692;2022-12-18T14:56:43;29.10;;;19.90;;
3873;SDS011;1952;50.872;6.692;2022-12-18T14:59:17;26.67;;;18.50;;
3873;SDS011;1952;50.872;6.692;2022-12-18T15:01:58;24.63;;;16.67;;
3873;SDS011;1952;50.872;6.692;2022-12-18T15:04:29;25.60;;;15.80;;
3873;SDS011;1952;50.872;6.692;2022-12-18T15:07:05;28.30;;;18.17;;
3873;SDS011;1952;50.872;6.692;2022-12-18T15:09:37;30.40;;;17.30;;
3873;SDS011;1952;50.872;6.692;2022-12-18T15:12:19;29.40;;;18.93;;
3873;SDS011;1952;50.872;6.692;2022-12-18T15:14:55;32.33;;;22.50;;
3873;SDS011;1952;50.872;6.692;2022-12-18T15:17:25;31.33;;;20.17;;
3873;SDS011;1952;50.872;6.692;2022-12-18T15:19:57;24.63;;;17.33;;
3873;SDS011;1952;50.872;6.692;2022-12-18T15:22:27;34.53;;;20.53;;
3873;SDS011;1952;50.872;6.692;2022-12-18T15:24:59;23.33;;;17.27;;
3873;SDS011;1952;50.872;6.692;2022-12-18T15:27:30;32.80;;;20.00;;
3873;SDS011;1952;50.872;6.692;2022-12-18T15:30:00;25.83;;;15.90;;
3873;SDS011;1952;50.872;6.692;2022-12-18T15:32:36;30.67;;;19.47;;
3873;SDS011;1952;50.872;6.692;2022-12-18T15:35:34;22.57;;;15.57;;
3873;SDS011;1952;50.872;6.692;2022-12-18T15:38:31;33.63;;;18.03;;
3873;SDS011;1952;50.872;6.692;2022-12-18T15:41:11;26.70;;;19.27;;
3873;SDS011;1952;50.872;6.692;2022-12-18T15:43:41;26.57;;;16.67;;
3873;SDS011;1952;50.872;6.692;2022-12-18T15:46:15;28.07;;;17.53;;
3873;SDS011;1952;50.872;6.692;2022-12-18T15:48:50;30.00;;;19.57;;
3873;SDS011;1952;50.872;6.692;2022-12-18T15:51:33;33.80;;;18.57;;
3873;SDS011;1952;50.872;6.692;2022-12-18T15:54:03;23.40;;;14.43;;
3873;SDS011;1952;50.872;6.692;2022-12-18T15:56:36;26.40;;;16.80;;
3873;SDS011;1952;50.872;6.692;2022-12-18T15:59:28;30.00;;;16.87;;
3873;SDS011;1952;50.872;6.692;2022-12-18T16:01:57;31.43;;;18.07;;
3873;SDS011;1952;50.872;6.692;2022-12-18T16:04:28;29.20;;;18.20;;
3873;SDS011;1952;50.872;6.692;2022-12-18T16:07:23;31.87;;;18.00;;
3873;SDS011;1952;50.872;6.692;2022-12-18T16:09:56;29.63;;;17.97;;
3873;SDS011;1952;50.872;6.692;2022-12-18T16:13:11;32.20;;;21.50;;
3873;SDS011;1952;50.872;6.692;2022-12-18T16:16:15;28.67;;;18.87;;
3873;SDS011;1952;50.872;6.692;2022-12-18T16:19:12;31.00;;;17.63;;
3873;SDS011;1952;50.872;6.692;2022-12-18T16:21:58;33.07;;;18.40;;
3873;SDS011;1952;50.872;6.692;2022-12-18T16:24:28;29.77;;;18.30;;
3873;SDS011;1952;50.872;6.692;2022-12-18T16:26:57;27.43;;;16.60;;
3873;SDS011;1952;50.872;6.692;2022-12-18T16:29:34;29.10;;;17.53;;
3873;SDS011;1952;50.872;6.692;2022-12-18T16:32:03;25.23;;;15.00;;
3873;SDS011;1952;50.872;6.692;2022-12-18T16:34:47;24.53;;;16.53;;
3873;SDS011;1952;50.872;6.692;2022-12-18T16:37:43;26.27;;;16.17;;
3873;SDS011;1952;50.872;6.692;2022-12-18T16:40:41;29.33;;;17.50;;
3873;SDS011;1952;50.872;6.692;2022-12-18T16:43:23;26.37;;;16.03;;
3873;SDS011;1952;50.872;6.692;2022-12-18T16:45:54;28.60;;;16.63;;
3873;SDS011;1952;50.872;6.692;2022-12-18T16:48:49;29.77;;;16.63;;
3873;SDS011;1952;50.872;6.692;2022-12-18T16:51:19;30.80;;;18.90;;
3873;SDS011;1952;50.872;6.692;2022-12-18T16:53:48;27.90;;;19.07;;
3873;SDS011;1952;50.872;6.692;2022-12-18T16:56:30;24.50;;;17.60;;
3873;SDS011;1952;50.872;6.692;2022-12-18T16:59:36;39.50;;;20.13;;
3873;SDS011;1952;50.872;6.692;2022-12-18T17:27:02;30.50;;;18.60;;
3873;SDS011;1952;50.872;6.692;2022-12-18T17:29:58;27.80;;;17.70;;
3873;SDS011;1952;50.872;6.692;2022-12-18T17:32:55;29.27;;;17.07;;
3873;SDS011;1952;50.872;6.692;2022-12-18T17:35:45;22.87;;;16.27;;
3873;SDS011;1952;50.872;6.692;2022-12-18T17:38:43;28.30;;;18.40;;
3873;SDS011;1952;50.872;6.692;2022-12-18T17:41:46;29.07;;;16.70;;
3873;SDS011;1952;50.872;6.692;2022-12-18T17:47:09;25.97;;;20.70;;